createdAt,value
2019-02-25T00:00:50.253Z,-0.39
2019-02-25T00:04:05.315Z,-0.57
2019-02-25T00:07:19.219Z,-0.69
2019-02-25T00:10:33.608Z,-0.70
2019-02-25T00:13:47.146Z,-0.72
2019-02-25T00:17:00.773Z,-0.60
2019-02-25T00:20:14.484Z,-0.72
2019-02-25T00:23:28.116Z,-0.69
2019-02-25T00:26:41.919Z,-0.75
2019-02-25T00:29:55.446Z,-0.71
2019-02-25T00:33:09.364Z,-0.73
2019-02-25T00:36:22.990Z,-0.80
2019-02-25T00:39:36.486Z,-0.75
2019-02-25T00:42:50.403Z,-0.69
2019-02-25T00:46:04.016Z,-0.61
2019-02-25T00:49:18.140Z,-0.61
2019-02-25T00:52:31.948Z,-0.67
2019-02-25T00:55:45.434Z,-0.70
2019-02-25T00:58:58.910Z,-0.69
2019-02-25T01:02:12.530Z,-0.72
2019-02-25T01:05:26.106Z,-0.77
2019-02-25T01:08:39.692Z,-0.77
2019-02-25T01:11:53.522Z,-0.96
2019-02-25T01:15:07.478Z,-0.97
2019-02-25T01:18:21.142Z,-0.93
2019-02-25T01:21:34.738Z,-1.04
2019-02-25T01:24:48.205Z,-1.16
2019-02-25T01:28:02.234Z,-1.22
2019-02-25T01:31:15.830Z,-1.25
2019-02-25T01:34:29.475Z,-1.25
2019-02-25T01:37:43.106Z,-1.18
2019-02-25T01:40:56.866Z,-1.25
2019-02-25T01:44:10.743Z,-1.20
2019-02-25T01:47:24.341Z,-1.14
2019-02-25T01:50:38.091Z,-1.16
2019-02-25T01:53:51.828Z,-1.27
2019-02-25T01:57:05.432Z,-1.38
2019-02-25T02:00:19.107Z,-1.46
2019-02-25T02:03:32.718Z,-1.38
2019-02-25T02:06:46.668Z,-1.27
2019-02-25T02:10:00.513Z,-1.19
2019-02-25T02:13:14.611Z,-1.34
2019-02-25T02:16:28.220Z,-1.43
2019-02-25T02:19:41.716Z,-1.42
2019-02-25T02:22:55.225Z,-1.36
2019-02-25T02:26:09.390Z,-1.39
2019-02-25T02:29:23.332Z,-1.34
2019-02-25T02:32:36.825Z,-1.30
2019-02-25T02:35:50.324Z,-1.20
2019-02-25T02:39:05.789Z,-1.16
2019-02-25T02:42:20.570Z,-1.17
2019-02-25T02:45:46.843Z,-1.15
2019-02-25T02:49:02.466Z,-1.14
2019-02-25T02:52:16.060Z,-1.20
2019-02-25T02:55:29.659Z,-1.26
2019-02-25T02:58:43.140Z,-1.22
2019-02-25T03:01:57.042Z,-1.20
2019-02-25T03:05:12.486Z,-1.27
2019-02-25T03:08:25.987Z,-1.30
2019-02-25T03:11:39.731Z,-1.33
2019-02-25T03:14:53.219Z,-1.25
2019-02-25T03:18:07.338Z,-1.21
2019-02-25T03:21:20.824Z,-1.21
2019-02-25T03:24:34.319Z,-1.29
2019-02-25T03:27:48.239Z,-1.30
2019-02-25T03:31:02.250Z,-1.33
2019-02-25T03:34:15.854Z,-1.39
2019-02-25T03:37:29.368Z,-1.48
2019-02-25T03:40:43.270Z,-1.50
2019-02-25T03:43:56.982Z,-1.56
2019-02-25T03:47:10.480Z,-1.49
2019-02-25T03:50:24.075Z,-1.53
2019-02-25T03:53:37.579Z,-1.56
2019-02-25T03:56:51.263Z,-1.53
2019-02-25T04:00:06.354Z,-1.42
2019-02-25T04:03:20.322Z,-1.42
2019-02-25T04:06:34.529Z,-1.41
2019-02-25T04:09:48.656Z,-1.40
2019-02-25T04:13:02.238Z,-1.55
2019-02-25T04:16:15.987Z,-1.48
2019-02-25T04:19:29.487Z,-1.46
2019-02-25T04:22:43.235Z,-1.57
2019-02-25T04:25:56.694Z,-1.50
2019-02-25T04:29:10.433Z,-1.60
2019-02-25T04:32:24.146Z,-1.50
2019-02-25T04:35:37.658Z,-1.50
2019-02-25T04:38:51.168Z,-1.59
2019-02-25T04:42:04.754Z,-1.59
2019-02-25T04:45:18.462Z,-1.72
2019-02-25T04:48:31.971Z,-1.68
2019-02-25T04:51:45.478Z,-1.63
2019-02-25T04:54:58.963Z,-1.69
2019-02-25T04:58:12.459Z,-1.81
2019-02-25T05:01:26.074Z,-1.72
2019-02-25T05:04:39.549Z,-1.77
2019-02-25T05:07:53.044Z,-1.76
2019-02-25T05:11:06.533Z,-1.81
2019-02-25T05:14:20.024Z,-1.83
2019-02-25T05:17:33.815Z,-1.77
2019-02-25T05:20:47.742Z,-1.74
2019-02-25T05:24:01.229Z,-1.84
2019-02-25T05:27:14.707Z,-1.79
2019-02-25T05:30:28.229Z,-1.76
2019-02-25T05:33:41.870Z,-1.76
2019-02-25T05:36:55.817Z,-1.73
2019-02-25T05:40:11.723Z,-1.82
2019-02-25T05:43:25.482Z,-1.95
2019-02-25T05:46:39.085Z,-1.92
2019-02-25T05:49:52.549Z,-1.83
2019-02-25T05:53:06.434Z,-1.76
2019-02-25T05:56:19.906Z,-1.75
2019-02-25T05:59:33.604Z,-1.74
2019-02-25T06:02:47.348Z,-1.72
2019-02-25T06:06:00.838Z,-1.73
2019-02-25T06:09:14.666Z,-1.89
2019-02-25T06:12:28.174Z,-1.90
2019-02-25T06:15:41.652Z,-1.87
2019-02-25T06:18:55.291Z,-1.94
2019-02-25T06:22:09.180Z,-1.85
2019-02-25T06:25:22.667Z,-1.91
2019-02-25T06:28:36.159Z,-1.91
2019-02-25T06:31:49.652Z,-1.83
2019-02-25T06:35:04.179Z,-1.87
2019-02-25T06:38:17.959Z,-1.80
2019-02-25T06:41:31.596Z,-1.80
2019-02-25T06:44:45.081Z,-1.79
2019-02-25T06:47:58.706Z,-1.70
2019-02-25T06:51:12.257Z,-1.69
2019-02-25T06:54:26.267Z,-1.83
2019-02-25T06:57:39.810Z,-1.76
2019-02-25T07:00:53.288Z,-1.70
2019-02-25T07:04:27.936Z,-1.61
2019-02-25T07:07:48.983Z,-1.58
2019-02-25T07:11:10.816Z,-1.60
2019-02-25T07:14:39.389Z,-1.65
2019-02-25T07:18:06.846Z,-1.57
2019-02-25T07:21:35.355Z,-1.49
2019-02-25T07:25:08.730Z,-1.40
2019-02-25T07:28:46.000Z,-1.39
2019-02-25T07:32:18.832Z,-1.37
2019-02-25T07:35:39.898Z,-1.28
2019-02-25T07:39:00.995Z,-1.31
2019-02-25T07:42:31.488Z,-1.23
2019-02-25T07:46:07.583Z,-1.23
2019-02-25T07:49:39.617Z,-1.06
2019-02-25T07:53:12.180Z,-0.94
2019-02-25T07:56:42.686Z,-0.90
2019-02-25T08:00:11.246Z,-0.81
2019-02-25T08:03:30.958Z,-0.68
2019-02-25T08:07:03.776Z,-0.54
2019-02-25T08:10:29.403Z,-0.32
2019-02-25T08:14:02.563Z,-0.11
2019-02-25T08:17:25.692Z,0.12
2019-02-25T08:20:58.999Z,0.34
2019-02-25T08:24:38.230Z,0.58
2019-02-25T08:28:17.442Z,0.89
2019-02-25T08:31:47.470Z,1.23
2019-02-25T08:35:21.022Z,1.62
2019-02-25T08:38:55.440Z,1.87
2019-02-25T08:42:16.531Z,2.14
2019-02-25T08:45:38.498Z,2.52
2019-02-25T08:48:58.325Z,2.89
2019-02-25T08:52:12.319Z,3.30
2019-02-25T08:55:27.776Z,3.73
2019-02-25T08:58:42.767Z,4.04
2019-02-25T09:01:56.682Z,4.42
2019-02-25T09:05:12.072Z,4.66
2019-02-25T09:08:26.027Z,4.94
2019-02-25T09:11:39.839Z,5.30
2019-02-25T09:14:53.333Z,5.66
2019-02-25T09:18:06.505Z,6.08
2019-02-25T09:21:20.326Z,6.38
2019-02-25T09:24:34.242Z,6.65
2019-02-25T09:27:47.959Z,6.87
2019-02-25T09:31:01.853Z,7.23
2019-02-25T09:34:15.689Z,7.57
2019-02-25T09:37:29.357Z,7.77
2019-02-25T09:40:43.050Z,7.84
2019-02-25T09:43:56.841Z,7.99
2019-02-25T09:47:10.481Z,8.20
2019-02-25T09:50:24.063Z,8.40
2019-02-25T09:53:37.562Z,8.49
2019-02-25T09:56:51.052Z,8.67
2019-02-25T10:00:06.807Z,8.87
2019-02-25T10:03:20.310Z,9.16
2019-02-25T10:06:33.833Z,9.54
2019-02-25T10:09:47.415Z,9.87
2019-02-25T10:13:01.463Z,10.22
2019-02-25T10:16:15.138Z,10.59
2019-02-25T10:19:28.940Z,10.99
2019-02-25T10:22:42.896Z,11.25
2019-02-25T10:25:56.779Z,11.41
2019-02-25T10:29:10.725Z,11.61
2019-02-25T10:32:25.974Z,11.95
2019-02-25T10:35:40.267Z,12.30
2019-02-25T10:38:54.128Z,12.68
2019-02-25T10:42:07.669Z,13.28
2019-02-25T10:45:22.909Z,13.75
2019-02-25T10:48:36.660Z,14.01
2019-02-25T10:51:50.258Z,14.02
2019-02-25T10:55:09.342Z,14.40
2019-02-25T10:58:24.763Z,14.85
2019-02-25T11:01:39.773Z,15.18
2019-02-25T11:04:55.627Z,15.66
2019-02-25T11:08:17.676Z,16.31
2019-02-25T11:11:33.681Z,16.83
2019-02-25T11:14:47.276Z,16.97
2019-02-25T11:18:00.869Z,16.94
2019-02-25T11:21:14.815Z,16.73
2019-02-25T11:24:28.664Z,16.15
2019-02-25T11:27:45.506Z,15.97
2019-02-25T11:31:04.366Z,16.23
2019-02-25T11:34:18.379Z,16.61
2019-02-25T11:37:31.977Z,16.58
2019-02-25T11:40:45.590Z,16.92
2019-02-25T11:43:59.194Z,17.36
2019-02-25T11:47:12.672Z,17.80
2019-02-25T11:50:26.270Z,18.02
2019-02-25T11:53:39.746Z,18.27
2019-02-25T11:56:53.355Z,18.54
2019-02-25T12:00:15.069Z,18.78
2019-02-25T12:03:28.705Z,19.45
2019-02-25T12:06:42.563Z,20.26
2019-02-25T12:09:56.430Z,20.67
2019-02-25T12:13:10.166Z,21.21
2019-02-25T12:16:23.940Z,21.37
2019-02-25T12:19:37.450Z,20.67
2019-02-25T12:22:51.427Z,20.31
2019-02-25T12:26:04.938Z,20.22
2019-02-25T12:29:18.983Z,19.99
2019-02-25T12:32:32.583Z,20.13
2019-02-25T12:35:46.174Z,20.07
2019-02-25T12:38:59.860Z,19.83
2019-02-25T12:42:13.587Z,19.39
2019-02-25T12:45:27.479Z,19.33
2019-02-25T12:48:41.478Z,19.25
2019-02-25T12:51:55.534Z,18.96
2019-02-25T12:55:09.645Z,18.94
2019-02-25T12:58:23.296Z,19.12
2019-02-25T13:01:37.210Z,19.45
2019-02-25T13:04:51.040Z,19.72
2019-02-25T13:08:05.594Z,19.66
2019-02-25T13:11:19.483Z,19.43
2019-02-25T13:14:33.010Z,19.69
2019-02-25T13:17:46.886Z,19.97
2019-02-25T13:21:00.741Z,20.33
2019-02-25T13:24:14.272Z,20.28
2019-02-25T13:27:28.089Z,20.39
2019-02-25T13:30:41.763Z,20.54
2019-02-25T13:33:55.634Z,20.61
2019-02-25T13:37:09.568Z,20.69
2019-02-25T13:40:23.178Z,20.92
2019-02-25T13:43:37.087Z,20.54
2019-02-25T13:46:50.565Z,20.57
2019-02-25T13:50:04.771Z,20.35
2019-02-25T13:53:18.442Z,20.15
2019-02-25T13:56:32.646Z,20.43
2019-02-25T13:59:46.678Z,20.92
2019-02-25T14:03:00.375Z,21.27
2019-02-25T14:06:14.302Z,21.40
2019-02-25T14:09:28.078Z,21.87
2019-02-25T14:12:42.227Z,22.08
2019-02-25T14:15:55.910Z,22.33
2019-02-25T14:19:09.984Z,22.34
2019-02-25T14:22:23.691Z,22.46
2019-02-25T14:25:38.465Z,21.58
2019-02-25T14:28:53.466Z,21.43
2019-02-25T14:32:11.062Z,21.05
2019-02-25T14:35:28.015Z,21.17
2019-02-25T14:38:41.219Z,20.44
2019-02-25T14:41:58.948Z,20.69
2019-02-25T14:45:14.736Z,20.62
2019-02-25T14:48:30.398Z,20.50
2019-02-25T14:51:46.040Z,19.91
2019-02-25T14:55:01.563Z,19.32
2019-02-25T14:58:17.952Z,19.22
2019-02-25T15:01:32.317Z,19.22
2019-02-25T15:04:46.238Z,18.86
2019-02-25T15:08:00.314Z,18.51
2019-02-25T15:11:15.465Z,17.74
2019-02-25T15:14:29.746Z,17.30
2019-02-25T15:17:45.673Z,16.84
2019-02-25T15:21:02.954Z,16.43
2019-02-25T15:24:19.080Z,16.19
2019-02-25T15:27:32.854Z,16.04
2019-02-25T15:30:46.655Z,15.89
2019-02-25T15:34:00.690Z,15.87
2019-02-25T15:37:14.341Z,15.77
2019-02-25T15:40:28.076Z,15.61
2019-02-25T15:43:41.741Z,15.62
2019-02-25T15:46:57.868Z,15.45
2019-02-25T15:50:12.751Z,15.48
2019-02-25T15:53:27.864Z,15.42
2019-02-25T15:56:42.253Z,15.47
2019-02-25T15:59:55.870Z,15.41
2019-02-25T16:03:11.163Z,15.35
2019-02-25T16:06:28.834Z,15.39
2019-02-25T16:09:41.205Z,15.23
2019-02-25T16:12:56.184Z,15.04
2019-02-25T16:16:12.697Z,14.73
2019-02-25T16:19:38.893Z,14.40
2019-02-25T16:22:42.179Z,14.04
2019-02-25T16:25:56.933Z,13.70
2019-02-25T16:29:11.800Z,13.19
2019-02-25T16:32:26.257Z,12.81
2019-02-25T16:35:41.180Z,12.55
2019-02-25T16:38:58.085Z,12.38
2019-02-25T16:42:11.920Z,11.88
2019-02-25T16:45:28.493Z,11.67
2019-02-25T16:48:41.378Z,11.59
2019-02-25T16:51:55.523Z,11.49
2019-02-25T16:55:11.259Z,11.28
2019-02-25T16:58:27.585Z,10.87
2019-02-25T17:01:41.893Z,10.70
2019-02-25T17:04:55.457Z,10.50
2019-02-25T17:08:12.589Z,10.38
2019-02-25T17:11:26.708Z,10.22
2019-02-25T17:14:40.938Z,9.93
2019-02-25T17:17:58.304Z,9.69
2019-02-25T17:21:10.152Z,9.19
2019-02-25T17:24:26.095Z,9.02
2019-02-25T17:27:39.439Z,8.93
2019-02-25T17:30:52.969Z,8.79
2019-02-25T17:34:07.071Z,8.66
2019-02-25T17:37:20.800Z,8.45
2019-02-25T17:40:34.675Z,8.36
2019-02-25T17:43:48.167Z,8.22
2019-02-25T17:47:02.143Z,8.05
2019-02-25T17:50:17.630Z,7.93
2019-02-25T17:53:32.768Z,7.70
2019-02-25T17:56:47.488Z,7.29
2019-02-25T18:00:03.303Z,7.05
2019-02-25T18:03:17.432Z,6.90
2019-02-25T18:06:32.437Z,6.78
2019-02-25T18:09:47.230Z,6.80
2019-02-25T18:13:05.971Z,6.71
2019-02-25T18:16:18.462Z,6.53
2019-02-25T18:19:32.556Z,6.34
2019-02-25T18:22:46.256Z,6.07
2019-02-25T18:25:59.975Z,5.97
2019-02-25T18:29:15.662Z,5.87
2019-02-25T18:32:30.488Z,5.59
2019-02-25T18:35:45.719Z,5.50
2019-02-25T18:38:59.581Z,5.38
2019-02-25T18:42:13.769Z,5.38
2019-02-25T18:45:29.325Z,5.41
2019-02-25T18:48:44.543Z,5.32
2019-02-25T18:51:58.552Z,5.04
2019-02-25T18:55:13.661Z,4.85
2019-02-25T18:58:27.561Z,4.82
2019-02-25T19:01:41.355Z,4.73
2019-02-25T19:04:54.840Z,4.56
2019-02-25T19:08:15.012Z,4.37
2019-02-25T19:11:28.338Z,4.27
2019-02-25T19:14:42.372Z,4.19
2019-02-25T19:17:56.283Z,4.19
2019-02-25T19:21:10.934Z,4.06
2019-02-25T19:24:24.839Z,3.94
2019-02-25T19:27:38.560Z,3.91
2019-02-25T19:30:52.439Z,3.78
2019-02-25T19:34:06.218Z,3.72
2019-02-25T19:37:20.014Z,3.62
2019-02-25T19:40:33.871Z,3.64
2019-02-25T19:43:47.326Z,3.49
2019-02-25T19:47:00.909Z,3.40
2019-02-25T19:50:14.630Z,3.34
2019-02-25T19:53:31.471Z,3.34
2019-02-25T19:56:45.589Z,3.30
2019-02-25T20:00:00.224Z,3.29
2019-02-25T20:03:15.108Z,3.15
2019-02-25T20:06:31.292Z,3.02
2019-02-25T20:09:44.870Z,2.95
2019-02-25T20:12:59.366Z,2.89
2019-02-25T20:16:15.786Z,2.92
2019-02-25T20:19:28.719Z,2.81
2019-02-25T20:22:43.118Z,2.83
2019-02-25T20:25:57.829Z,2.63
2019-02-25T20:29:12.757Z,2.60
2019-02-25T20:32:26.666Z,2.50
2019-02-25T20:35:40.222Z,2.43
2019-02-25T20:38:53.692Z,2.43
2019-02-25T20:42:07.536Z,2.34
2019-02-25T20:45:23.164Z,2.39
2019-02-25T20:48:37.157Z,2.34
2019-02-25T20:51:52.336Z,2.26
2019-02-25T20:55:08.839Z,2.29
2019-02-25T20:58:23.252Z,2.07
2019-02-25T21:01:39.491Z,1.99
2019-02-25T21:04:52.677Z,2.07
2019-02-25T21:08:06.394Z,2.01
2019-02-25T21:11:20.199Z,1.89
2019-02-25T21:14:35.583Z,1.81
2019-02-25T21:17:49.074Z,1.80
2019-02-25T21:21:05.050Z,1.71
2019-02-25T21:24:18.552Z,1.73
2019-02-25T21:27:32.944Z,1.74
2019-02-25T21:30:48.979Z,1.65
2019-02-25T21:34:03.907Z,1.54
2019-02-25T21:37:18.776Z,1.54
2019-02-25T21:40:33.287Z,1.59
2019-02-25T21:43:47.651Z,1.55
2019-02-25T21:47:03.640Z,1.55
2019-02-25T21:50:18.304Z,1.51
2019-02-25T21:53:31.897Z,1.52
2019-02-25T21:56:45.488Z,1.52
2019-02-25T22:00:01.034Z,1.53
2019-02-25T22:03:15.647Z,1.58
2019-02-25T22:06:31.608Z,1.45
2019-02-25T22:09:46.005Z,1.29
2019-02-25T22:13:04.363Z,1.30
2019-02-25T22:16:15.799Z,1.24
2019-02-25T22:19:29.706Z,1.19
2019-02-25T22:22:43.423Z,1.25
2019-02-25T22:25:56.949Z,1.35
2019-02-25T22:29:10.393Z,1.19
2019-02-25T22:32:23.871Z,1.18
2019-02-25T22:35:39.620Z,1.22
2019-02-25T22:38:52.858Z,1.21
2019-02-25T22:42:07.944Z,1.09
2019-02-25T22:45:21.760Z,1.12
2019-02-25T22:48:37.477Z,1.14
2019-02-25T22:51:54.244Z,1.12
2019-02-25T22:55:09.905Z,1.05
2019-02-25T22:58:23.405Z,1.02
2019-02-25T23:01:37.444Z,1.03
2019-02-25T23:04:51.904Z,1.03
2019-02-25T23:08:09.041Z,0.88
2019-02-25T23:11:24.312Z,0.88
2019-02-25T23:14:38.371Z,0.94
2019-02-25T23:17:53.099Z,0.96
2019-02-25T23:21:06.588Z,0.88
2019-02-25T23:24:21.710Z,0.71
2019-02-25T23:27:36.637Z,0.82
2019-02-25T23:30:53.288Z,0.92
2019-02-25T23:34:10.030Z,0.84
2019-02-25T23:37:24.152Z,0.75
2019-02-25T23:40:40.054Z,0.70
2019-02-25T23:43:53.857Z,0.72
2019-02-25T23:47:08.940Z,0.73
2019-02-25T23:50:25.088Z,0.94
2019-02-25T23:53:38.562Z,0.83
2019-02-25T23:56:54.503Z,0.68
